sensor_id;sensor_type;location;lat;lon;timestamp;P1;durP1;ratioP1;P2;durP2;ratioP2
75639;SDS011;64233;51.486;6.332;2023-04-06T00:01:24;14.45;;;8.15;;
75639;SDS011;64233;51.486;6.332;2023-04-06T00:03:49;13.25;;;6.55;;
75639;SDS011;64233;51.486;6.332;2023-04-06T00:06:14;12.10;;;7.22;;
75639;SDS011;64233;51.486;6.332;2023-04-06T00:08:40;16.02;;;7.47;;
75639;SDS011;64233;51.486;6.332;2023-04-06T00:11:06;12.82;;;6.60;;
75639;SDS011;64233;51.486;6.332;2023-04-06T00:13:31;18.40;;;7.80;;
75639;SDS011;64233;51.486;6.332;2023-04-06T00:15:57;9.15;;;6.57;;
75639;SDS011;64233;51.486;6.332;2023-04-06T00:18:22;12.05;;;5.53;;
75639;SDS011;64233;51.486;6.332;2023-04-06T00:20:48;11.30;;;6.72;;
75639;SDS011;64233;51.486;6.332;2023-04-06T00:23:13;10.13;;;6.30;;
75639;SDS011;64233;51.486;6.332;2023-04-06T00:25:38;14.93;;;6.68;;
75639;SDS011;64233;51.486;6.332;2023-04-06T00:28:04;10.65;;;5.43;;
75639;SDS011;64233;51.486;6.332;2023-04-06T00:30:29;8.90;;;5.75;;
75639;SDS011;64233;51.486;6.332;2023-04-06T00:32:55;8.02;;;4.82;;
75639;SDS011;64233;51.486;6.332;2023-04-06T00:35:20;10.38;;;6.03;;
75639;SDS011;64233;51.486;6.332;2023-04-06T00:37:46;11.68;;;6.25;;
75639;SDS011;64233;51.486;6.332;2023-04-06T00:40:12;8.07;;;5.25;;
75639;SDS011;64233;51.486;6.332;2023-04-06T00:42:38;12.60;;;6.00;;
75639;SDS011;64233;51.486;6.332;2023-04-06T00:45:04;10.40;;;6.35;;
75639;SDS011;64233;51.486;6.332;2023-04-06T00:47:29;14.93;;;6.05;;
75639;SDS011;64233;51.486;6.332;2023-04-06T00:49:55;10.27;;;5.88;;
75639;SDS011;64233;51.486;6.332;2023-04-06T00:52:20;11.15;;;6.32;;
75639;SDS011;64233;51.486;6.332;2023-04-06T00:54:46;6.75;;;4.85;;
75639;SDS011;64233;51.486;6.332;2023-04-06T00:57:12;7.60;;;5.25;;
75639;SDS011;64233;51.486;6.332;2023-04-06T00:59:38;9.43;;;5.72;;
75639;SDS011;64233;51.486;6.332;2023-04-06T01:04:32;10.68;;;6.00;;
75639;SDS011;64233;51.486;6.332;2023-04-06T01:06:58;9.25;;;5.10;;
75639;SDS011;64233;51.486;6.332;2023-04-06T01:09:23;8.85;;;6.07;;
75639;SDS011;64233;51.486;6.332;2023-04-06T01:11:49;11.60;;;7.40;;
75639;SDS011;64233;51.486;6.332;2023-04-06T01:14:14;13.80;;;6.78;;
75639;SDS011;64233;51.486;6.332;2023-04-06T01:16:40;11.32;;;6.30;;
75639;SDS011;64233;51.486;6.332;2023-04-06T01:19:09;12.85;;;6.07;;
75639;SDS011;64233;51.486;6.332;2023-04-06T01:21:36;9.23;;;5.50;;
75639;SDS011;64233;51.486;6.332;2023-04-06T01:24:02;9.98;;;5.30;;
75639;SDS011;64233;51.486;6.332;2023-04-06T01:26:28;8.02;;;5.80;;
75639;SDS011;64233;51.486;6.332;2023-04-06T01:28:54;9.63;;;5.70;;
75639;SDS011;64233;51.486;6.332;2023-04-06T01:31:20;12.18;;;6.47;;
75639;SDS011;64233;51.486;6.332;2023-04-06T01:33:46;11.40;;;6.40;;
75639;SDS011;64233;51.486;6.332;2023-04-06T01:36:11;10.65;;;5.97;;
75639;SDS011;64233;51.486;6.332;2023-04-06T01:38:37;12.77;;;5.72;;
75639;SDS011;64233;51.486;6.332;2023-04-06T01:41:02;8.82;;;5.45;;
75639;SDS011;64233;51.486;6.332;2023-04-06T01:43:27;6.90;;;4.93;;
75639;SDS011;64233;51.486;6.332;2023-04-06T01:45:53;8.55;;;5.22;;
75639;SDS011;64233;51.486;6.332;2023-04-06T01:48:18;6.90;;;4.75;;
75639;SDS011;64233;51.486;6.332;2023-04-06T01:50:44;8.68;;;5.25;;
75639;SDS011;64233;51.486;6.332;2023-04-06T01:53:09;10.52;;;6.13;;
75639;SDS011;64233;51.486;6.332;2023-04-06T01:55:34;8.48;;;5.72;;
75639;SDS011;64233;51.486;6.332;2023-04-06T01:57:59;15.05;;;6.60;;
75639;SDS011;64233;51.486;6.332;2023-04-06T02:00:25;12.00;;;6.70;;
75639;SDS011;64233;51.486;6.332;2023-04-06T02:02:50;15.23;;;6.70;;
75639;SDS011;64233;51.486;6.332;2023-04-06T02:05:15;10.40;;;6.35;;
75639;SDS011;64233;51.486;6.332;2023-04-06T02:07:41;10.77;;;5.72;;
75639;SDS011;64233;51.486;6.332;2023-04-06T02:10:10;11.70;;;5.90;;
75639;SDS011;64233;51.486;6.332;2023-04-06T02:12:37;11.35;;;6.88;;
75639;SDS011;64233;51.486;6.332;2023-04-06T02:15:02;21.98;;;7.20;;
75639;SDS011;64233;51.486;6.332;2023-04-06T02:17:28;15.10;;;6.78;;
75639;SDS011;64233;51.486;6.332;2023-04-06T02:19:53;12.25;;;7.47;;
75639;SDS011;64233;51.486;6.332;2023-04-06T02:22:19;11.07;;;6.32;;
75639;SDS011;64233;51.486;6.332;2023-04-06T02:24:44;13.02;;;6.97;;
75639;SDS011;64233;51.486;6.332;2023-04-06T02:27:10;11.88;;;6.60;;
75639;SDS011;64233;51.486;6.332;2023-04-06T02:29:35;15.80;;;5.97;;
75639;SDS011;64233;51.486;6.332;2023-04-06T02:32:00;15.70;;;6.50;;
75639;SDS011;64233;51.486;6.332;2023-04-06T02:34:26;12.93;;;7.18;;
75639;SDS011;64233;51.486;6.332;2023-04-06T02:36:51;13.88;;;7.35;;
75639;SDS011;64233;51.486;6.332;2023-04-06T02:39:17;10.57;;;6.32;;
75639;SDS011;64233;51.486;6.332;2023-04-06T02:41:42;9.20;;;6.20;;
75639;SDS011;64233;51.486;6.332;2023-04-06T02:44:08;11.50;;;6.97;;
75639;SDS011;64233;51.486;6.332;2023-04-06T02:46:33;11.60;;;7.53;;
75639;SDS011;64233;51.486;6.332;2023-04-06T02:48:59;12.32;;;6.47;;
75639;SDS011;64233;51.486;6.332;2023-04-06T02:51:25;11.63;;;6.28;;
75639;SDS011;64233;51.486;6.332;2023-04-06T02:53:51;13.77;;;7.00;;
75639;SDS011;64233;51.486;6.332;2023-04-06T02:56:16;12.02;;;6.35;;
75639;SDS011;64233;51.486;6.332;2023-04-06T02:58:42;15.27;;;7.20;;
75639;SDS011;64233;51.486;6.332;2023-04-06T03:01:07;10.65;;;6.35;;
75639;SDS011;64233;51.486;6.332;2023-04-06T03:03:32;11.50;;;6.60;;
75639;SDS011;64233;51.486;6.332;2023-04-06T03:05:57;11.43;;;6.07;;
75639;SDS011;64233;51.486;6.332;2023-04-06T03:08:24;8.27;;;5.85;;
75639;SDS011;64233;51.486;6.332;2023-04-06T03:10:50;14.05;;;6.25;;
75639;SDS011;64233;51.486;6.332;2023-04-06T03:13:15;15.52;;;7.65;;
75639;SDS011;64233;51.486;6.332;2023-04-06T03:15:41;15.38;;;6.72;;
75639;SDS011;64233;51.486;6.332;2023-04-06T03:18:06;11.52;;;6.20;;
75639;SDS011;64233;51.486;6.332;2023-04-06T03:20:31;15.32;;;7.28;;
75639;SDS011;64233;51.486;6.332;2023-04-06T03:22:57;15.13;;;8.02;;
75639;SDS011;64233;51.486;6.332;2023-04-06T03:25:22;19.98;;;6.88;;
75639;SDS011;64233;51.486;6.332;2023-04-06T03:27:48;11.60;;;6.93;;
75639;SDS011;64233;51.486;6.332;2023-04-06T03:30:13;15.95;;;7.82;;
75639;SDS011;64233;51.486;6.332;2023-04-06T03:32:38;9.30;;;6.70;;
75639;SDS011;64233;51.486;6.332;2023-04-06T03:35:04;8.40;;;5.70;;
75639;SDS011;64233;51.486;6.332;2023-04-06T03:37:29;12.35;;;6.97;;
75639;SDS011;64233;51.486;6.332;2023-04-06T03:39:55;12.05;;;7.50;;
75639;SDS011;64233;51.486;6.332;2023-04-06T03:42:20;13.30;;;7.47;;
75639;SDS011;64233;51.486;6.332;2023-04-06T03:44:45;18.73;;;8.82;;
75639;SDS011;64233;51.486;6.332;2023-04-06T03:47:11;12.35;;;7.07;;
75639;SDS011;64233;51.486;6.332;2023-04-06T03:49:36;15.73;;;9.00;;
75639;SDS011;64233;51.486;6.332;2023-04-06T03:52:01;12.20;;;6.88;;
75639;SDS011;64233;51.486;6.332;2023-04-06T03:54:27;14.50;;;7.57;;
75639;SDS011;64233;51.486;6.332;2023-04-06T03:56:52;17.02;;;8.27;;
75639;SDS011;64233;51.486;6.332;2023-04-06T03:59:17;13.98;;;7.85;;
75639;SDS011;64233;51.486;6.332;2023-04-06T04:01:43;12.35;;;7.43;;
75639;SDS011;64233;51.486;6.332;2023-04-06T04:04:08;13.40;;;7.80;;
75639;SDS011;64233;51.486;6.332;2023-04-06T04:06:33;14.40;;;7.55;;
75639;SDS011;64233;51.486;6.332;2023-04-06T04:08:58;18.17;;;7.50;;
75639;SDS011;64233;51.486;6.332;2023-04-06T04:11:24;13.48;;;7.50;;
75639;SDS011;64233;51.486;6.332;2023-04-06T04:13:49;12.13;;;6.40;;
75639;SDS011;64233;51.486;6.332;2023-04-06T04:16:15;15.63;;;7.22;;
75639;SDS011;64233;51.486;6.332;2023-04-06T04:18:40;15.90;;;7.57;;
75639;SDS011;64233;51.486;6.332;2023-04-06T04:21:08;13.57;;;6.30;;
75639;SDS011;64233;51.486;6.332;2023-04-06T04:23:33;10.15;;;6.32;;
75639;SDS011;64233;51.486;6.332;2023-04-06T04:25:59;10.95;;;6.18;;
75639;SDS011;64233;51.486;6.332;2023-04-06T04:28:24;13.05;;;7.03;;
75639;SDS011;64233;51.486;6.332;2023-04-06T04:30:49;15.93;;;7.38;;
75639;SDS011;64233;51.486;6.332;2023-04-06T04:33:15;11.65;;;6.25;;
75639;SDS011;64233;51.486;6.332;2023-04-06T04:35:40;10.75;;;6.15;;
75639;SDS011;64233;51.486;6.332;2023-04-06T04:38:06;11.38;;;6.63;;
75639;SDS011;64233;51.486;6.332;2023-04-06T04:40:31;8.95;;;6.35;;
75639;SDS011;64233;51.486;6.332;2023-04-06T04:42:56;17.83;;;7.75;;
75639;SDS011;64233;51.486;6.332;2023-04-06T04:45:22;15.25;;;9.02;;
75639;SDS011;64233;51.486;6.332;2023-04-06T04:47:47;11.52;;;7.03;;
75639;SDS011;64233;51.486;6.332;2023-04-06T04:50:12;16.50;;;8.60;;
75639;SDS011;64233;51.486;6.332;2023-04-06T04:52:37;16.33;;;9.00;;
75639;SDS011;64233;51.486;6.332;2023-04-06T04:55:03;25.05;;;9.95;;
75639;SDS011;64233;51.486;6.332;2023-04-06T04:57:29;13.30;;;7.85;;
75639;SDS011;64233;51.486;6.332;2023-04-06T04:59:54;19.42;;;9.57;;
75639;SDS011;64233;51.486;6.332;2023-04-06T05:02:19;23.63;;;9.82;;
75639;SDS011;64233;51.486;6.332;2023-04-06T05:04:45;17.27;;;9.63;;
75639;SDS011;64233;51.486;6.332;2023-04-06T05:07:10;16.75;;;8.57;;
75639;SDS011;64233;51.486;6.332;2023-04-06T05:09:35;16.73;;;9.20;;
75639;SDS011;64233;51.486;6.332;2023-04-06T05:12:10;16.77;;;9.88;;
75639;SDS011;64233;51.486;6.332;2023-04-06T05:14:35;16.42;;;8.85;;
75639;SDS011;64233;51.486;6.332;2023-04-06T05:17:07;19.25;;;9.65;;
75639;SDS011;64233;51.486;6.332;2023-04-06T05:19:39;20.33;;;9.95;;
75639;SDS011;64233;51.486;6.332;2023-04-06T05:22:05;12.70;;;7.60;;
75639;SDS011;64233;51.486;6.332;2023-04-06T05:24:30;13.50;;;8.43;;
75639;SDS011;64233;51.486;6.332;2023-04-06T05:26:55;13.38;;;7.80;;
75639;SDS011;64233;51.486;6.332;2023-04-06T05:29:21;13.38;;;8.35;;
75639;SDS011;64233;51.486;6.332;2023-04-06T05:31:46;16.55;;;8.52;;
75639;SDS011;64233;51.486;6.332;2023-04-06T05:34:11;11.63;;;7.20;;
75639;SDS011;64233;51.486;6.332;2023-04-06T05:36:37;14.90;;;7.00;;
75639;SDS011;64233;51.486;6.332;2023-04-06T05:39:03;13.57;;;7.07;;
75639;SDS011;64233;51.486;6.332;2023-04-06T05:41:28;14.43;;;6.93;;
75639;SDS011;64233;51.486;6.332;2023-04-06T05:43:53;14.82;;;7.65;;
75639;SDS011;64233;51.486;6.332;2023-04-06T05:46:19;15.68;;;7.47;;
75639;SDS011;64233;51.486;6.332;2023-04-06T05:48:44;15.20;;;8.20;;
75639;SDS011;64233;51.486;6.332;2023-04-06T05:51:10;15.93;;;7.53;;
75639;SDS011;64233;51.486;6.332;2023-04-06T05:53:35;13.82;;;7.57;;
75639;SDS011;64233;51.486;6.332;2023-04-06T05:56:01;17.30;;;7.82;;
75639;SDS011;64233;51.486;6.332;2023-04-06T05:58:30;11.15;;;7.80;;
75639;SDS011;64233;51.486;6.332;2023-04-06T06:00:58;15.07;;;7.05;;
75639;SDS011;64233;51.486;6.332;2023-04-06T06:03:28;18.25;;;8.10;;
75639;SDS011;64233;51.486;6.332;2023-04-06T06:05:58;14.55;;;8.65;;
75639;SDS011;64233;51.486;6.332;2023-04-06T06:08:24;11.43;;;7.47;;
75639;SDS011;64233;51.486;6.332;2023-04-06T06:10:50;15.75;;;8.27;;
75639;SDS011;64233;51.486;6.332;2023-04-06T06:13:15;13.50;;;6.57;;
75639;SDS011;64233;51.486;6.332;2023-04-06T06:15:41;15.75;;;7.25;;
75639;SDS011;64233;51.486;6.332;2023-04-06T06:18:06;11.77;;;6.53;;
75639;SDS011;64233;51.486;6.332;2023-04-06T06:20:31;16.80;;;8.38;;
75639;SDS011;64233;51.486;6.332;2023-04-06T06:23:03;13.13;;;7.40;;
75639;SDS011;64233;51.486;6.332;2023-04-06T06:25:35;15.00;;;7.10;;
75639;SDS011;64233;51.486;6.332;2023-04-06T06:28:00;6.60;;;4.65;;
75639;SDS011;64233;51.486;6.332;2023-04-06T06:30:26;14.70;;;7.50;;
75639;SDS011;64233;51.486;6.332;2023-04-06T06:32:51;16.17;;;6.32;;
75639;SDS011;64233;51.486;6.332;2023-04-06T06:35:17;14.40;;;7.90;;
75639;SDS011;64233;51.486;6.332;2023-04-06T06:37:42;14.40;;;6.15;;
75639;SDS011;64233;51.486;6.332;2023-04-06T06:40:08;12.18;;;6.38;;
75639;SDS011;64233;51.486;6.332;2023-04-06T06:42:35;16.85;;;8.30;;
75639;SDS011;64233;51.486;6.332;2023-04-06T06:45:00;14.27;;;7.50;;
75639;SDS011;64233;51.486;6.332;2023-04-06T06:47:26;14.48;;;8.38;;
75639;SDS011;64233;51.486;6.332;2023-04-06T06:49:51;12.52;;;8.40;;
75639;SDS011;64233;51.486;6.332;2023-04-06T06:52:16;15.70;;;8.07;;
75639;SDS011;64233;51.486;6.332;2023-04-06T06:54:42;13.73;;;7.43;;
75639;SDS011;64233;51.486;6.332;2023-04-06T06:57:08;16.73;;;8.85;;
75639;SDS011;64233;51.486;6.332;2023-04-06T06:59:34;13.45;;;7.68;;
75639;SDS011;64233;51.486;6.332;2023-04-06T07:01:59;19.10;;;7.90;;
75639;SDS011;64233;51.486;6.332;2023-04-06T07:04:24;14.82;;;8.25;;
75639;SDS011;64233;51.486;6.332;2023-04-06T07:06:49;11.70;;;6.85;;
75639;SDS011;64233;51.486;6.332;2023-04-06T07:09:15;14.60;;;8.60;;
75639;SDS011;64233;51.486;6.332;2023-04-06T07:11:40;16.80;;;7.85;;
75639;SDS011;64233;51.486;6.332;2023-04-06T07:14:06;16.20;;;8.50;;
75639;SDS011;64233;51.486;6.332;2023-04-06T07:16:31;14.80;;;7.22;;
75639;SDS011;64233;51.486;6.332;2023-04-06T07:18:56;13.73;;;8.00;;
75639;SDS011;64233;51.486;6.332;2023-04-06T07:21:21;10.45;;;5.82;;
75639;SDS011;64233;51.486;6.332;2023-04-06T07:23:47;13.25;;;8.07;;
75639;SDS011;64233;51.486;6.332;2023-04-06T07:26:13;10.68;;;7.15;;
75639;SDS011;64233;51.486;6.332;2023-04-06T07:28:38;13.85;;;7.72;;
75639;SDS011;64233;51.486;6.332;2023-04-06T07:31:03;14.32;;;6.95;;
75639;SDS011;64233;51.486;6.332;2023-04-06T07:33:29;13.38;;;7.15;;
75639;SDS011;64233;51.486;6.332;2023-04-06T07:35:55;23.40;;;7.70;;
75639;SDS011;64233;51.486;6.332;2023-04-06T07:38:21;17.85;;;7.70;;
75639;SDS011;64233;51.486;6.332;2023-04-06T07:40:46;16.98;;;8.05;;
75639;SDS011;64233;51.486;6.332;2023-04-06T07:43:12;17.75;;;8.10;;
75639;SDS011;64233;51.486;6.332;2023-04-06T07:45:37;15.75;;;8.35;;
75639;SDS011;64233;51.486;6.332;2023-04-06T07:48:03;14.75;;;8.10;;
75639;SDS011;64233;51.486;6.332;2023-04-06T07:50:28;13.57;;;7.35;;
75639;SDS011;64233;51.486;6.332;2023-04-06T07:52:53;19.15;;;7.80;;
75639;SDS011;64233;51.486;6.332;2023-04-06T07:55:19;15.45;;;8.00;;
75639;SDS011;64233;51.486;6.332;2023-04-06T07:57:44;14.57;;;7.50;;
75639;SDS011;64233;51.486;6.332;2023-04-06T08:00:09;17.58;;;8.13;;
75639;SDS011;64233;51.486;6.332;2023-04-06T08:02:35;14.27;;;7.78;;
75639;SDS011;64233;51.486;6.332;2023-04-06T08:05:00;16.55;;;8.02;;
75639;SDS011;64233;51.486;6.332;2023-04-06T08:07:26;12.88;;;7.90;;
75639;SDS011;64233;51.486;6.332;2023-04-06T08:09:51;13.25;;;7.95;;
75639;SDS011;64233;51.486;6.332;2023-04-06T08:12:17;14.68;;;8.48;;
75639;SDS011;64233;51.486;6.332;2023-04-06T08:14:42;16.52;;;8.27;;
75639;SDS011;64233;51.486;6.332;2023-04-06T08:17:07;17.80;;;8.48;;
75639;SDS011;64233;51.486;6.332;2023-04-06T08:19:33;11.18;;;7.43;;
75639;SDS011;64233;51.486;6.332;2023-04-06T08:21:58;16.50;;;8.45;;
75639;SDS011;64233;51.486;6.332;2023-04-06T08:24:23;14.82;;;7.55;;
75639;SDS011;64233;51.486;6.332;2023-04-06T08:26:49;17.90;;;9.02;;
75639;SDS011;64233;51.486;6.332;2023-04-06T08:29:15;16.95;;;8.63;;
75639;SDS011;64233;51.486;6.332;2023-04-06T08:31:41;16.20;;;8.43;;
75639;SDS011;64233;51.486;6.332;2023-04-06T08:34:06;13.73;;;7.68;;
75639;SDS011;64233;51.486;6.332;2023-04-06T08:36:31;15.05;;;8.57;;
75639;SDS011;64233;51.486;6.332;2023-04-06T08:38:57;14.82;;;8.30;;
75639;SDS011;64233;51.486;6.332;2023-04-06T08:41:22;15.20;;;8.23;;
75639;SDS011;64233;51.486;6.332;2023-04-06T08:43:58;16.27;;;9.15;;
75639;SDS011;64233;51.486;6.332;2023-04-06T08:46:25;14.23;;;8.60;;
75639;SDS011;64233;51.486;6.332;2023-04-06T08:48:59;19.67;;;9.35;;
75639;SDS011;64233;51.486;6.332;2023-04-06T08:51:26;21.85;;;9.27;;
75639;SDS011;64233;51.486;6.332;2023-04-06T08:53:53;17.42;;;8.77;;
75639;SDS011;64233;51.486;6.332;2023-04-06T08:56:22;16.50;;;8.85;;
75639;SDS011;64233;51.486;6.332;2023-04-06T08:58:48;14.80;;;7.80;;
75639;SDS011;64233;51.486;6.332;2023-04-06T09:01:14;18.27;;;9.65;;
75639;SDS011;64233;51.486;6.332;2023-04-06T09:03:42;16.27;;;7.18;;
75639;SDS011;64233;51.486;6.332;2023-04-06T09:06:09;15.90;;;7.90;;
75639;SDS011;64233;51.486;6.332;2023-04-06T09:08:39;17.20;;;8.80;;
75639;SDS011;64233;51.486;6.332;2023-04-06T09:11:05;8.02;;;5.30;;
75639;SDS011;64233;51.486;6.332;2023-04-06T09:13:31;15.93;;;7.43;;
75639;SDS011;64233;51.486;6.332;2023-04-06T09:16:08;11.38;;;6.72;;
75639;SDS011;64233;51.486;6.332;2023-04-06T09:18:34;16.25;;;7.55;;
75639;SDS011;64233;51.486;6.332;2023-04-06T09:21:00;9.32;;;5.28;;
75639;SDS011;64233;51.486;6.332;2023-04-06T09:23:27;16.33;;;7.05;;
75639;SDS011;64233;51.486;6.332;2023-04-06T09:26:04;12.43;;;6.40;;
75639;SDS011;64233;51.486;6.332;2023-04-06T09:31:26;14.25;;;7.53;;
75639;SDS011;64233;51.486;6.332;2023-04-06T09:33:54;15.95;;;7.07;;
75639;SDS011;64233;51.486;6.332;2023-04-06T09:36:36;13.73;;;7.05;;
75639;SDS011;64233;51.486;6.332;2023-04-06T09:39:06;17.85;;;9.20;;
75639;SDS011;64233;51.486;6.332;2023-04-06T09:41:35;14.88;;;7.90;;
75639;SDS011;64233;51.486;6.332;2023-04-06T09:46:31;15.52;;;6.63;;
75639;SDS011;64233;51.486;6.332;2023-04-06T09:48:58;11.73;;;8.23;;
75639;SDS011;64233;51.486;6.332;2023-04-06T09:51:25;14.90;;;7.20;;
75639;SDS011;64233;51.486;6.332;2023-04-06T09:53:53;12.35;;;8.07;;
75639;SDS011;64233;51.486;6.332;2023-04-06T09:56:23;10.73;;;6.28;;
75639;SDS011;64233;51.486;6.332;2023-04-06T09:58:53;10.25;;;6.22;;
75639;SDS011;64233;51.486;6.332;2023-04-06T10:01:26;11.90;;;6.28;;
75639;SDS011;64233;51.486;6.332;2023-04-06T10:03:56;13.40;;;7.55;;
75639;SDS011;64233;51.486;6.332;2023-04-06T10:06:26;11.95;;;6.85;;
75639;SDS011;64233;51.486;6.332;2023-04-06T10:08:53;22.20;;;8.43;;
75639;SDS011;64233;51.486;6.332;2023-04-06T10:11:21;13.07;;;7.40;;
75639;SDS011;64233;51.486;6.332;2023-04-06T10:13:47;17.40;;;9.07;;
75639;SDS011;64233;51.486;6.332;2023-04-06T10:16:14;15.68;;;7.45;;
75639;SDS011;64233;51.486;6.332;2023-04-06T10:18:39;13.05;;;7.35;;
75639;SDS011;64233;51.486;6.332;2023-04-06T10:21:11;17.35;;;7.53;;
75639;SDS011;64233;51.486;6.332;2023-04-06T10:23:41;20.40;;;9.57;;
75639;SDS011;64233;51.486;6.332;2023-04-06T10:26:13;18.33;;;8.27;;
75639;SDS011;64233;51.486;6.332;2023-04-06T10:28:40;13.98;;;8.20;;
75639;SDS011;64233;51.486;6.332;2023-04-06T10:31:07;16.27;;;6.18;;
75639;SDS011;64233;51.486;6.332;2023-04-06T10:33:32;17.83;;;8.20;;
75639;SDS011;64233;51.486;6.332;2023-04-06T10:36:08;17.50;;;8.40;;
75639;SDS011;64233;51.486;6.332;2023-04-06T10:38:35;9.60;;;5.50;;
75639;SDS011;64233;51.486;6.332;2023-04-06T10:41:05;17.30;;;7.50;;
75639;SDS011;64233;51.486;6.332;2023-04-06T10:43:35;21.50;;;8.48;;
75639;SDS011;64233;51.486;6.332;2023-04-06T10:46:02;15.57;;;7.50;;
75639;SDS011;64233;51.486;6.332;2023-04-06T10:48:44;11.18;;;6.03;;
75639;SDS011;64233;51.486;6.332;2023-04-06T10:51:13;13.88;;;8.15;;
75639;SDS011;64233;51.486;6.332;2023-04-06T10:53:46;14.73;;;7.80;;
75639;SDS011;64233;51.486;6.332;2023-04-06T10:56:16;14.23;;;6.90;;
75639;SDS011;64233;51.486;6.332;2023-04-06T10:58:46;16.63;;;7.50;;
75639;SDS011;64233;51.486;6.332;2023-04-06T11:01:17;20.80;;;7.57;;
75639;SDS011;64233;51.486;6.332;2023-04-06T11:03:45;15.10;;;6.93;;
75639;SDS011;64233;51.486;6.332;2023-04-06T11:06:25;10.57;;;5.35;;
75639;SDS011;64233;51.486;6.332;2023-04-06T11:08:52;12.05;;;5.22;;
75639;SDS011;64233;51.486;6.332;2023-04-06T11:11:19;14.55;;;5.95;;
75639;SDS011;64233;51.486;6.332;2023-04-06T11:18:56;12.88;;;6.05;;
75639;SDS011;64233;51.486;6.332;2023-04-06T11:24:11;11.20;;;6.25;;
75639;SDS011;64233;51.486;6.332;2023-04-06T11:26:39;13.77;;;6.25;;
75639;SDS011;64233;51.486;6.332;2023-04-06T11:29:17;11.77;;;5.65;;
75639;SDS011;64233;51.486;6.332;2023-04-06T11:31:50;13.30;;;5.97;;
75639;SDS011;64233;51.486;6.332;2023-04-06T11:34:17;11.88;;;5.80;;
75639;SDS011;64233;51.486;6.332;2023-04-06T11:36:45;8.30;;;4.20;;
75639;SDS011;64233;51.486;6.332;2023-04-06T11:39:12;9.98;;;5.57;;
75639;SDS011;64233;51.486;6.332;2023-04-06T11:41:39;11.68;;;5.10;;
75639;SDS011;64233;51.486;6.332;2023-04-06T11:44:05;11.68;;;6.25;;
75639;SDS011;64233;51.486;6.332;2023-04-06T11:46:31;14.10;;;7.20;;
75639;SDS011;64233;51.486;6.332;2023-04-06T11:49:01;14.77;;;6.57;;
75639;SDS011;64233;51.486;6.332;2023-04-06T11:51:27;18.60;;;7.40;;
75639;SDS011;64233;51.486;6.332;2023-04-06T11:53:53;10.10;;;5.32;;
75639;SDS011;64233;51.486;6.332;2023-04-06T11:56:23;12.88;;;6.43;;
75639;SDS011;64233;51.486;6.332;2023-04-06T11:58:50;8.70;;;4.72;;
75639;SDS011;64233;51.486;6.332;2023-04-06T12:01:15;7.35;;;4.25;;
75639;SDS011;64233;51.486;6.332;2023-04-06T12:03:40;13.20;;;6.28;;
75639;SDS011;64233;51.486;6.332;2023-04-06T12:06:06;10.75;;;5.28;;
75639;SDS011;64233;51.486;6.332;2023-04-06T12:08:31;7.95;;;3.10;;
75639;SDS011;64233;51.486;6.332;2023-04-06T12:10:56;5.60;;;2.42;;
75639;SDS011;64233;51.486;6.332;2023-04-06T12:13:22;7.22;;;3.60;;
75639;SDS011;64233;51.486;6.332;2023-04-06T12:15:47;9.98;;;3.83;;
75639;SDS011;64233;51.486;6.332;2023-04-06T12:18:12;7.75;;;4.70;;
75639;SDS011;64233;51.486;6.332;2023-04-06T12:20:38;4.20;;;2.30;;
75639;SDS011;64233;51.486;6.332;2023-04-06T12:23:03;3.63;;;2.63;;
75639;SDS011;64233;51.486;6.332;2023-04-06T12:25:28;6.25;;;3.58;;
75639;SDS011;64233;51.486;6.332;2023-04-06T12:27:54;7.30;;;2.50;;
75639;SDS011;64233;51.486;6.332;2023-04-06T12:30:19;2.40;;;1.73;;
75639;SDS011;64233;51.486;6.332;2023-04-06T12:32:44;12.32;;;6.20;;
75639;SDS011;64233;51.486;6.332;2023-04-06T12:35:10;7.55;;;4.68;;
75639;SDS011;64233;51.486;6.332;2023-04-06T12:37:36;9.32;;;4.25;;
75639;SDS011;64233;51.486;6.332;2023-04-06T12:40:02;8.98;;;3.40;;
75639;SDS011;64233;51.486;6.332;2023-04-06T12:42:28;3.75;;;2.47;;
75639;SDS011;64233;51.486;6.332;2023-04-06T12:44:53;5.55;;;2.30;;
75639;SDS011;64233;51.486;6.332;2023-04-06T12:47:18;3.15;;;2.38;;
75639;SDS011;64233;51.486;6.332;2023-04-06T12:49:44;5.65;;;3.20;;
75639;SDS011;64233;51.486;6.332;2023-04-06T12:52:10;6.78;;;4.22;;
75639;SDS011;64233;51.486;6.332;2023-04-06T12:54:35;2.78;;;1.83;;
75639;SDS011;64233;51.486;6.332;2023-04-06T12:57:01;6.90;;;4.65;;
75639;SDS011;64233;51.486;6.332;2023-04-06T12:59:26;9.25;;;3.88;;
75639;SDS011;64233;51.486;6.332;2023-04-06T13:01:52;7.05;;;4.45;;
75639;SDS011;64233;51.486;6.332;2023-04-06T13:04:18;4.68;;;2.85;;
75639;SDS011;64233;51.486;6.332;2023-04-06T13:06:56;6.85;;;3.33;;
75639;SDS011;64233;51.486;6.332;2023-04-06T13:09:21;7.65;;;4.00;;
75639;SDS011;64233;51.486;6.332;2023-04-06T13:11:47;3.22;;;2.38;;
75639;SDS011;64233;51.486;6.332;2023-04-06T13:14:12;3.85;;;2.53;;
75639;SDS011;64233;51.486;6.332;2023-04-06T13:16:37;2.95;;;1.88;;
75639;SDS011;64233;51.486;6.332;2023-04-06T13:19:03;4.28;;;2.72;;
75639;SDS011;64233;51.486;6.332;2023-04-06T13:21:28;7.25;;;3.95;;
75639;SDS011;64233;51.486;6.332;2023-04-06T13:23:53;9.10;;;4.20;;
75639;SDS011;64233;51.486;6.332;2023-04-06T13:26:19;11.02;;;5.30;;
75639;SDS011;64233;51.486;6.332;2023-04-06T13:28:44;6.40;;;3.35;;
75639;SDS011;64233;51.486;6.332;2023-04-06T13:31:10;6.13;;;3.88;;
75639;SDS011;64233;51.486;6.332;2023-04-06T13:33:35;6.97;;;3.08;;
75639;SDS011;64233;51.486;6.332;2023-04-06T13:36:01;8.05;;;3.65;;
75639;SDS011;64233;51.486;6.332;2023-04-06T13:38:26;9.25;;;4.72;;
75639;SDS011;64233;51.486;6.332;2023-04-06T13:40:52;5.28;;;2.85;;
75639;SDS011;64233;51.486;6.332;2023-04-06T13:43:18;6.80;;;4.07;;
75639;SDS011;64233;51.486;6.332;2023-04-06T13:45:48;7.35;;;4.00;;
75639;SDS011;64233;51.486;6.332;2023-04-06T13:48:18;8.05;;;4.10;;
75639;SDS011;64233;51.486;6.332;2023-04-06T13:50:44;9.80;;;4.68;;
75639;SDS011;64233;51.486;6.332;2023-04-06T13:53:10;8.52;;;4.43;;
75639;SDS011;64233;51.486;6.332;2023-04-06T13:55:35;8.57;;;4.72;;
75639;SDS011;64233;51.486;6.332;2023-04-06T13:58:01;10.90;;;5.32;;
75639;SDS011;64233;51.486;6.332;2023-04-06T14:00:26;9.73;;;5.28;;
75639;SDS011;64233;51.486;6.332;2023-04-06T14:02:53;8.38;;;4.97;;
75639;SDS011;64233;51.486;6.332;2023-04-06T14:05:19;5.78;;;4.13;;
75639;SDS011;64233;51.486;6.332;2023-04-06T14:07:44;9.10;;;4.78;;
75639;SDS011;64233;51.486;6.332;2023-04-06T14:10:10;4.45;;;2.75;;
75639;SDS011;64233;51.486;6.332;2023-04-06T14:12:39;8.43;;;5.20;;
75639;SDS011;64233;51.486;6.332;2023-04-06T14:15:11;12.48;;;5.38;;
75639;SDS011;64233;51.486;6.332;2023-04-06T14:17:37;9.65;;;4.95;;
75639;SDS011;64233;51.486;6.332;2023-04-06T14:20:03;11.13;;;5.07;;
75639;SDS011;64233;51.486;6.332;2023-04-06T14:22:32;11.70;;;5.15;;
75639;SDS011;64233;51.486;6.332;2023-04-06T14:24:57;11.57;;;5.25;;
75639;SDS011;64233;51.486;6.332;2023-04-06T14:27:23;7.32;;;4.40;;
75639;SDS011;64233;51.486;6.332;2023-04-06T14:29:49;11.32;;;6.10;;
75639;SDS011;64233;51.486;6.332;2023-04-06T14:32:14;10.80;;;5.47;;
75639;SDS011;64233;51.486;6.332;2023-04-06T14:34:40;9.30;;;5.32;;
75639;SDS011;64233;51.486;6.332;2023-04-06T14:37:05;9.38;;;5.72;;
75639;SDS011;64233;51.486;6.332;2023-04-06T14:39:31;10.43;;;5.05;;
75639;SDS011;64233;51.486;6.332;2023-04-06T14:41:56;11.77;;;6.13;;
75639;SDS011;64233;51.486;6.332;2023-04-06T14:44:21;14.40;;;6.68;;
75639;SDS011;64233;51.486;6.332;2023-04-06T14:46:47;14.75;;;6.40;;
75639;SDS011;64233;51.486;6.332;2023-04-06T14:49:12;11.07;;;5.85;;